sensor_id;sensor_type;location;lat;lon;timestamp;pressure;altitude;pressure_sealevel;temperature;humidity
33163;BME280;29282;45.656;11.302;2023-01-30T00:00:58;98941.75;;;19.12;46.80
33163;BME280;29282;45.656;11.302;2023-01-30T00:03:25;98937.88;;;19.13;46.81
33163;BME280;29282;45.656;11.302;2023-01-30T00:05:51;98941.25;;;19.36;46.10
33163;BME280;29282;45.656;11.302;2023-01-30T00:08:16;98937.69;;;19.36;46.77
33163;BME280;29282;45.656;11.302;2023-01-30T00:10:43;98935.28;;;19.08;46.67
33163;BME280;29282;45.656;11.302;2023-01-30T00:13:09;98929.97;;;19.12;46.75
33163;BME280;29282;45.656;11.302;2023-01-30T00:15:35;98933.34;;;19.35;46.15
33163;BME280;29282;45.656;11.302;2023-01-30T00:18:01;98928.34;;;19.28;46.28
33163;BME280;29282;45.656;11.302;2023-01-30T00:20:27;98928.50;;;19.06;46.76
33163;BME280;29282;45.656;11.302;2023-01-30T00:22:52;98916.69;;;19.14;46.64
33163;BME280;29282;45.656;11.302;2023-01-30T00:25:17;98913.63;;;19.33;46.31
33163;BME280;29282;45.656;11.302;2023-01-30T00:27:43;98919.13;;;19.24;46.23
33163;BME280;29282;45.656;11.302;2023-01-30T00:30:09;98908.47;;;19.05;46.85
33163;BME280;29282;45.656;11.302;2023-01-30T00:32:35;98911.53;;;19.12;46.61
33163;BME280;29282;45.656;11.302;2023-01-30T00:35:00;98902.63;;;19.33;46.42
33163;BME280;29282;45.656;11.302;2023-01-30T00:37:29;98893.91;;;19.22;46.33
33163;BME280;29282;45.656;11.302;2023-01-30T00:39:54;98896.69;;;19.05;46.91
33163;BME280;29282;45.656;11.302;2023-01-30T00:42:20;98902.00;;;19.18;46.16
33163;BME280;29282;45.656;11.302;2023-01-30T00:45:04;98896.66;;;19.31;46.33
33163;BME280;29282;45.656;11.302;2023-01-30T00:47:48;98898.16;;;19.11;46.64
33163;BME280;29282;45.656;11.302;2023-01-30T00:50:14;98902.31;;;18.99;47.09
33163;BME280;29282;45.656;11.302;2023-01-30T00:52:40;98896.31;;;19.23;45.80
33163;BME280;29282;45.656;11.302;2023-01-30T00:55:06;98893.28;;;19.25;46.85
33163;BME280;29282;45.656;11.302;2023-01-30T00:57:32;98898.28;;;19.06;46.70
33163;BME280;29282;45.656;11.302;2023-01-30T00:59:57;98892.78;;;18.97;47.06
33163;BME280;29282;45.656;11.302;2023-01-30T01:02:23;98882.13;;;19.21;45.90
33163;BME280;29282;45.656;11.302;2023-01-30T01:04:51;98883.41;;;19.24;47.00
33163;BME280;29282;45.656;11.302;2023-01-30T01:07:17;98881.81;;;19.06;46.29
33163;BME280;29282;45.656;11.302;2023-01-30T01:09:42;98889.75;;;18.98;46.94
33163;BME280;29282;45.656;11.302;2023-01-30T01:12:08;98879.84;;;19.23;45.75
33163;BME280;29282;45.656;11.302;2023-01-30T01:14:36;98884.53;;;19.23;47.00
33163;BME280;29282;45.656;11.302;2023-01-30T01:17:04;98879.22;;;19.00;46.82
33163;BME280;29282;45.656;11.302;2023-01-30T01:19:30;98875.50;;;18.96;46.90
33163;BME280;29282;45.656;11.302;2023-01-30T01:21:56;98870.00;;;19.22;45.68
33163;BME280;29282;45.656;11.302;2023-01-30T01:24:21;98871.94;;;19.22;46.95
33163;BME280;29282;45.656;11.302;2023-01-30T01:26:49;98869.38;;;18.99;46.64
33163;BME280;29282;45.656;11.302;2023-01-30T01:29:16;98862.13;;;18.95;46.79
33163;BME280;29282;45.656;11.302;2023-01-30T01:31:42;98848.22;;;19.17;45.83
33163;BME280;29282;45.656;11.302;2023-01-30T01:34:09;98855.31;;;19.18;46.88
33163;BME280;29282;45.656;11.302;2023-01-30T01:36:34;98848.84;;;18.97;46.79
33163;BME280;29282;45.656;11.302;2023-01-30T01:39:00;98849.50;;;18.94;46.75
33163;BME280;29282;45.656;11.302;2023-01-30T01:41:26;98842.72;;;19.17;45.76
33163;BME280;29282;45.656;11.302;2023-01-30T01:44:02;98841.88;;;19.17;46.90
33163;BME280;29282;45.656;11.302;2023-01-30T01:49:02;98836.91;;;18.93;46.85
33163;BME280;29282;45.656;11.302;2023-01-30T01:51:37;98829.78;;;19.18;45.68
33163;BME280;29282;45.656;11.302;2023-01-30T01:54:09;98829.94;;;19.13;46.85
33163;BME280;29282;45.656;11.302;2023-01-30T01:56:38;98832.88;;;18.90;46.79
33163;BME280;29282;45.656;11.302;2023-01-30T01:59:25;98825.94;;;18.93;46.38
33163;BME280;29282;45.656;11.302;2023-01-30T02:01:55;98828.00;;;19.13;45.97
33163;BME280;29282;45.656;11.302;2023-01-30T02:04:25;98827.84;;;19.10;46.12
33163;BME280;29282;45.656;11.302;2023-01-30T02:07:13;98823.69;;;18.86;46.81
33163;BME280;29282;45.656;11.302;2023-01-30T02:09:41;98823.69;;;18.95;46.51
33163;BME280;29282;45.656;11.302;2023-01-30T02:12:07;98825.25;;;19.13;46.03
33163;BME280;29282;45.656;11.302;2023-01-30T02:14:34;98819.94;;;19.08;46.33
33163;BME280;29282;45.656;11.302;2023-01-30T02:17:01;98812.38;;;18.88;46.80
33163;BME280;29282;45.656;11.302;2023-01-30T02:33:44;98799.09;;;19.07;46.35
33163;BME280;29282;45.656;11.302;2023-01-30T02:39:08;98792.81;;;18.81;46.65
33163;BME280;29282;45.656;11.302;2023-01-30T02:41:51;98803.16;;;18.92;46.13
33163;BME280;29282;45.656;11.302;2023-01-30T02:47:14;98804.75;;;18.93;46.37
33163;BME280;29282;45.656;11.302;2023-01-30T02:49:57;98793.97;;;18.80;46.82
33163;BME280;29282;45.656;11.302;2023-01-30T02:52:26;98792.97;;;18.93;46.17
33163;BME280;29282;45.656;11.302;2023-01-30T02:54:51;98789.25;;;19.06;46.05
33163;BME280;29282;45.656;11.302;2023-01-30T02:57:22;98790.09;;;18.98;46.35
33163;BME280;29282;45.656;11.302;2023-01-30T02:59:53;98785.09;;;18.83;46.42
33163;BME280;29282;45.656;11.302;2023-01-30T03:10:36;98769.09;;;18.85;46.23
33163;BME280;29282;45.656;11.302;2023-01-30T03:13:10;98767.16;;;18.76;46.40
33163;BME280;29282;45.656;11.302;2023-01-30T03:15:41;98760.69;;;18.90;45.96
33163;BME280;29282;45.656;11.302;2023-01-30T03:18:10;98757.28;;;19.01;45.99
33163;BME280;29282;45.656;11.302;2023-01-30T03:20:39;98761.31;;;18.95;46.14
33163;BME280;29282;45.656;11.302;2023-01-30T03:23:06;98759.88;;;18.81;46.52
33163;BME280;29282;45.656;11.302;2023-01-30T03:25:32;98749.75;;;18.72;46.64
33163;BME280;29282;45.656;11.302;2023-01-30T03:28:01;98747.59;;;18.95;45.37
33163;BME280;29282;45.656;11.302;2023-01-30T03:30:28;98745.00;;;18.99;46.10
33163;BME280;29282;45.656;11.302;2023-01-30T03:32:53;98748.91;;;18.89;45.93
33163;BME280;29282;45.656;11.302;2023-01-30T03:35:19;98744.56;;;18.80;46.34
33163;BME280;29282;45.656;11.302;2023-01-30T03:37:46;98744.75;;;18.74;46.40
33163;BME280;29282;45.656;11.302;2023-01-30T03:40:13;98743.91;;;18.91;45.69
33163;BME280;29282;45.656;11.302;2023-01-30T03:42:40;98738.72;;;18.98;45.95
33163;BME280;29282;45.656;11.302;2023-01-30T03:45:07;98734.66;;;18.96;45.84
33163;BME280;29282;45.656;11.302;2023-01-30T03:47:33;98725.03;;;18.81;46.08
33163;BME280;29282;45.656;11.302;2023-01-30T03:49:58;98729.38;;;18.73;46.42
33163;BME280;29282;45.656;11.302;2023-01-30T03:52:27;98735.50;;;18.70;46.54
33163;BME280;29282;45.656;11.302;2023-01-30T03:54:52;98728.53;;;18.90;45.59
33163;BME280;29282;45.656;11.302;2023-01-30T03:57:18;98725.28;;;18.97;45.87
33163;BME280;29282;45.656;11.302;2023-01-30T03:59:43;98727.28;;;18.88;45.90
33163;BME280;29282;45.656;11.302;2023-01-30T04:02:09;98727.13;;;18.75;46.15
33163;BME280;29282;45.656;11.302;2023-01-30T04:04:35;98719.84;;;18.71;46.33
33163;BME280;29282;45.656;11.302;2023-01-30T04:07:00;98716.47;;;18.74;46.07
33163;BME280;29282;45.656;11.302;2023-01-30T04:09:26;98709.47;;;18.94;45.26
33163;BME280;29282;45.656;11.302;2023-01-30T04:11:52;98707.41;;;18.91;46.36
33163;BME280;29282;45.656;11.302;2023-01-30T04:14:18;98704.03;;;18.76;45.94
33163;BME280;29282;45.656;11.302;2023-01-30T04:16:44;98714.69;;;18.69;46.33
33163;BME280;29282;45.656;11.302;2023-01-30T04:19:10;98702.75;;;18.65;46.43
33163;BME280;29282;45.656;11.302;2023-01-30T04:21:36;98707.44;;;18.73;46.03
33163;BME280;29282;45.656;11.302;2023-01-30T04:24:01;98710.59;;;18.93;45.20
33163;BME280;29282;45.656;11.302;2023-01-30T04:26:27;98708.84;;;18.88;46.28
33163;BME280;29282;45.656;11.302;2023-01-30T04:28:52;98701.63;;;18.75;45.90
33163;BME280;29282;45.656;11.302;2023-01-30T04:31:18;98696.59;;;18.68;46.26
33163;BME280;29282;45.656;11.302;2023-01-30T04:33:43;98689.47;;;18.67;46.22
33163;BME280;29282;45.656;11.302;2023-01-30T04:36:09;98682.25;;;18.63;46.26
33163;BME280;29282;45.656;11.302;2023-01-30T04:38:35;98686.75;;;18.67;46.15
33163;BME280;29282;45.656;11.302;2023-01-30T04:41:01;98674.78;;;18.89;44.97
33163;BME280;29282;45.656;11.302;2023-01-30T04:43:28;98671.22;;;18.89;45.75
33163;BME280;29282;45.656;11.302;2023-01-30T04:45:54;98665.28;;;18.78;45.58
33163;BME280;29282;45.656;11.302;2023-01-30T04:48:21;98662.22;;;18.71;45.91
33163;BME280;29282;45.656;11.302;2023-01-30T04:50:49;98659.28;;;18.67;45.96
33163;BME280;29282;45.656;11.302;2023-01-30T04:53:18;98653.34;;;18.65;46.09
33163;BME280;29282;45.656;11.302;2023-01-30T04:55:45;98650.09;;;18.63;46.04
33163;BME280;29282;45.656;11.302;2023-01-30T04:58:10;98645.75;;;18.62;46.12
33163;BME280;29282;45.656;11.302;2023-01-30T05:00:36;98644.16;;;18.61;46.02
33163;BME280;29282;45.656;11.302;2023-01-30T05:03:02;98643.03;;;18.62;46.08
33163;BME280;29282;45.656;11.302;2023-01-30T05:05:27;98643.31;;;18.61;45.88
33163;BME280;29282;45.656;11.302;2023-01-30T05:07:53;98643.66;;;18.59;46.01
33163;BME280;29282;45.656;11.302;2023-01-30T05:10:20;98640.94;;;18.59;46.08
33163;BME280;29282;45.656;11.302;2023-01-30T05:12:45;98635.78;;;18.58;45.99
33163;BME280;29282;45.656;11.302;2023-01-30T05:15:12;98641.25;;;18.58;46.03
33163;BME280;29282;45.656;11.302;2023-01-30T05:17:38;98642.88;;;18.59;46.10
33163;BME280;29282;45.656;11.302;2023-01-30T05:20:05;98647.88;;;18.57;46.01
33163;BME280;29282;45.656;11.302;2023-01-30T05:22:31;98647.06;;;18.56;45.71
33163;BME280;29282;45.656;11.302;2023-01-30T05:24:56;98647.69;;;18.62;45.59
33163;BME280;29282;45.656;11.302;2023-01-30T05:27:22;98637.53;;;18.62;45.20
33163;BME280;29282;45.656;11.302;2023-01-30T05:29:47;98635.72;;;18.66;44.85
33163;BME280;29282;45.656;11.302;2023-01-30T05:32:14;98639.44;;;18.79;44.16
33163;BME280;29282;45.656;11.302;2023-01-30T05:34:39;98637.84;;;18.78;44.71
33163;BME280;29282;45.656;11.302;2023-01-30T05:37:05;98642.50;;;18.69;44.45
33163;BME280;29282;45.656;11.302;2023-01-30T05:39:31;98646.41;;;18.59;44.90
33163;BME280;29282;45.656;11.302;2023-01-30T05:41:56;98639.97;;;18.55;44.75
33163;BME280;29282;45.656;11.302;2023-01-30T05:44:22;98654.97;;;18.58;44.73
33163;BME280;29282;45.656;11.302;2023-01-30T05:46:47;98659.00;;;18.60;44.27
33163;BME280;29282;45.656;11.302;2023-01-30T05:49:13;98661.44;;;18.62;44.13
33163;BME280;29282;45.656;11.302;2023-01-30T05:51:38;98655.13;;;18.61;43.83
33163;BME280;29282;45.656;11.302;2023-01-30T05:54:04;98656.75;;;18.62;43.64
33163;BME280;29282;45.656;11.302;2023-01-30T05:56:30;98660.78;;;18.65;43.20
33163;BME280;29282;45.656;11.302;2023-01-30T05:58:58;98657.38;;;18.76;43.33
33163;BME280;29282;45.656;11.302;2023-01-30T06:01:24;98655.75;;;18.75;43.99
33163;BME280;29282;45.656;11.302;2023-01-30T06:03:50;98657.84;;;18.70;43.87
33163;BME280;29282;45.656;11.302;2023-01-30T06:06:16;98659.13;;;18.64;43.91
33163;BME280;29282;45.656;11.302;2023-01-30T06:08:42;98664.16;;;18.62;43.61
33163;BME280;29282;45.656;11.302;2023-01-30T06:11:10;98661.75;;;18.60;43.65
33163;BME280;29282;45.656;11.302;2023-01-30T06:13:38;98659.00;;;18.60;43.68
33163;BME280;29282;45.656;11.302;2023-01-30T06:16:05;98652.69;;;18.60;43.49
33163;BME280;29282;45.656;11.302;2023-01-30T06:18:31;98648.50;;;18.62;43.33
33163;BME280;29282;45.656;11.302;2023-01-30T06:20:57;98649.66;;;18.61;43.53
33163;BME280;29282;45.656;11.302;2023-01-30T06:23:22;98653.84;;;18.59;43.30
33163;BME280;29282;45.656;11.302;2023-01-30T06:25:49;98664.47;;;18.60;43.24
33163;BME280;29282;45.656;11.302;2023-01-30T06:28:16;98660.63;;;18.61;43.20
33163;BME280;29282;45.656;11.302;2023-01-30T06:30:42;98664.47;;;18.60;43.10
33163;BME280;29282;45.656;11.302;2023-01-30T06:33:08;98667.56;;;18.59;43.12
33163;BME280;29282;45.656;11.302;2023-01-30T06:35:33;98658.53;;;18.58;42.91
33163;BME280;29282;45.656;11.302;2023-01-30T06:37:59;98660.13;;;18.59;43.02
33163;BME280;29282;45.656;11.302;2023-01-30T06:40:24;98664.34;;;18.57;43.16
33163;BME280;29282;45.656;11.302;2023-01-30T06:42:50;98666.75;;;18.58;43.01
33163;BME280;29282;45.656;11.302;2023-01-30T06:45:17;98668.22;;;18.55;42.92
33163;BME280;29282;45.656;11.302;2023-01-30T06:47:51;98672.91;;;18.55;43.11
33163;BME280;29282;45.656;11.302;2023-01-30T06:50:20;98683.06;;;18.54;42.90
33163;BME280;29282;45.656;11.302;2023-01-30T06:52:48;98681.13;;;18.55;42.95
33163;BME280;29282;45.656;11.302;2023-01-30T06:55:17;98671.28;;;18.54;42.80
33163;BME280;29282;45.656;11.302;2023-01-30T06:57:43;98665.13;;;18.57;42.60
33163;BME280;29282;45.656;11.302;2023-01-30T07:00:12;98656.25;;;18.60;42.41
33163;BME280;29282;45.656;11.302;2023-01-30T07:02:38;98662.22;;;18.62;42.80
33163;BME280;29282;45.656;11.302;2023-01-30T07:05:05;98652.84;;;18.63;42.52
33163;BME280;29282;45.656;11.302;2023-01-30T07:07:32;98648.50;;;18.62;42.52
33163;BME280;29282;45.656;11.302;2023-01-30T07:09:57;98640.13;;;18.59;42.69
33163;BME280;29282;45.656;11.302;2023-01-30T07:12:24;98636.75;;;18.53;42.60
33163;BME280;29282;45.656;11.302;2023-01-30T07:14:53;98637.88;;;18.52;42.73
33163;BME280;29282;45.656;11.302;2023-01-30T07:17:20;98637.72;;;18.48;42.77
33163;BME280;29282;45.656;11.302;2023-01-30T07:19:46;98638.84;;;18.47;42.77
33163;BME280;29282;45.656;11.302;2023-01-30T07:22:12;98639.19;;;18.46;42.78
33163;BME280;29282;45.656;11.302;2023-01-30T07:24:38;98642.72;;;18.46;42.70
33163;BME280;29282;45.656;11.302;2023-01-30T07:27:10;98650.16;;;18.46;42.83
33163;BME280;29282;45.656;11.302;2023-01-30T07:29:37;98641.91;;;18.46;42.71
33163;BME280;29282;45.656;11.302;2023-01-30T07:32:04;98642.72;;;18.46;42.94
33163;BME280;29282;45.656;11.302;2023-01-30T07:34:29;98638.38;;;18.45;42.84
33163;BME280;29282;45.656;11.302;2023-01-30T07:36:58;98641.13;;;18.45;42.87
33163;BME280;29282;45.656;11.302;2023-01-30T07:39:24;98636.44;;;18.46;42.56
33163;BME280;29282;45.656;11.302;2023-01-30T07:41:49;98645.00;;;18.44;42.73
33163;BME280;29282;45.656;11.302;2023-01-30T07:44:15;98640.31;;;18.45;42.48
33163;BME280;29282;45.656;11.302;2023-01-30T07:46:40;98646.63;;;18.45;42.72
33163;BME280;29282;45.656;11.302;2023-01-30T07:49:07;98658.03;;;18.47;42.69
33163;BME280;29282;45.656;11.302;2023-01-30T07:51:34;98654.50;;;18.47;42.87
33163;BME280;29282;45.656;11.302;2023-01-30T07:54:00;98656.13;;;18.48;42.78
33163;BME280;29282;45.656;11.302;2023-01-30T07:56:26;98658.88;;;18.48;42.83
33163;BME280;29282;45.656;11.302;2023-01-30T07:58:54;98658.88;;;18.48;42.68
33163;BME280;29282;45.656;11.302;2023-01-30T08:01:20;98653.84;;;18.50;42.48
33163;BME280;29282;45.656;11.302;2023-01-30T08:03:46;98648.38;;;18.50;42.45
33163;BME280;29282;45.656;11.302;2023-01-30T08:06:16;98630.78;;;18.51;42.40
33163;BME280;29282;45.656;11.302;2023-01-30T08:08:42;98638.69;;;18.52;42.49
33163;BME280;29282;45.656;11.302;2023-01-30T08:11:08;98634.66;;;18.50;42.38
33163;BME280;29282;45.656;11.302;2023-01-30T08:13:34;98612.69;;;18.50;42.43
33163;BME280;29282;45.656;11.302;2023-01-30T08:16:03;98597.38;;;18.49;42.46
33163;BME280;29282;45.656;11.302;2023-01-30T08:18:30;98596.56;;;18.48;42.35
33163;BME280;29282;45.656;11.302;2023-01-30T08:21:04;98607.56;;;18.48;42.36
33163;BME280;29282;45.656;11.302;2023-01-30T08:23:30;98605.13;;;18.47;42.25
33163;BME280;29282;45.656;11.302;2023-01-30T08:26:01;98607.56;;;18.48;42.36
33163;BME280;29282;45.656;11.302;2023-01-30T08:28:27;98599.97;;;18.45;42.48
33163;BME280;29282;45.656;11.302;2023-01-30T08:30:54;98600.44;;;18.47;42.44
33163;BME280;29282;45.656;11.302;2023-01-30T08:33:21;98605.91;;;18.47;42.46
33163;BME280;29282;45.656;11.302;2023-01-30T08:35:46;98618.53;;;18.48;42.22
33163;BME280;29282;45.656;11.302;2023-01-30T08:38:12;98619.63;;;18.47;42.36
33163;BME280;29282;45.656;11.302;2023-01-30T08:40:38;98614.50;;;18.46;42.30
33163;BME280;29282;45.656;11.302;2023-01-30T08:43:04;98611.75;;;18.46;42.35
33163;BME280;29282;45.656;11.302;2023-01-30T08:45:30;98601.91;;;18.45;42.19
33163;BME280;29282;45.656;11.302;2023-01-30T08:48:04;98607.84;;;18.47;42.14
33163;BME280;29282;45.656;11.302;2023-01-30T08:50:31;98604.31;;;18.46;42.25
33163;BME280;29282;45.656;11.302;2023-01-30T08:52:57;98616.88;;;18.47;42.23
33163;BME280;29282;45.656;11.302;2023-01-30T08:55:26;98624.00;;;18.48;42.13
33163;BME280;29282;45.656;11.302;2023-01-30T08:57:55;98614.63;;;18.49;42.20
33163;BME280;29282;45.656;11.302;2023-01-30T09:00:21;98607.41;;;18.45;42.14
33163;BME280;29282;45.656;11.302;2023-01-30T09:02:46;98598.03;;;18.46;42.04
33163;BME280;29282;45.656;11.302;2023-01-30T09:05:12;98587.06;;;18.46;42.06
33163;BME280;29282;45.656;11.302;2023-01-30T09:07:37;98600.78;;;18.46;42.17
33163;BME280;29282;45.656;11.302;2023-01-30T09:10:03;98599.97;;;18.45;42.08
33163;BME280;29282;45.656;11.302;2023-01-30T09:12:29;98595.63;;;18.44;42.22
33163;BME280;29282;45.656;11.302;2023-01-30T09:14:54;98600.28;;;18.44;42.19
33163;BME280;29282;45.656;11.302;2023-01-30T09:17:24;98606.59;;;18.44;42.18
33163;BME280;29282;45.656;11.302;2023-01-30T09:19:50;98605.47;;;18.45;42.17
33163;BME280;29282;45.656;11.302;2023-01-30T09:22:16;98598.69;;;18.43;42.10
33163;BME280;29282;45.656;11.302;2023-01-30T09:24:41;98600.78;;;18.46;42.13
33163;BME280;29282;45.656;11.302;2023-01-30T09:27:07;98597.53;;;18.44;42.11
33163;BME280;29282;45.656;11.302;2023-01-30T09:29:33;98586.56;;;18.52;41.90
33163;BME280;29282;45.656;11.302;2023-01-30T09:31:58;98580.72;;;18.54;41.91
33163;BME280;29282;45.656;11.302;2023-01-30T09:34:25;98570.25;;;18.47;42.04
33163;BME280;29282;45.656;11.302;2023-01-30T09:36:59;98575.13;;;18.42;42.02
33163;BME280;29282;45.656;11.302;2023-01-30T09:39:28;98553.19;;;18.42;42.23
33163;BME280;29282;45.656;11.302;2023-01-30T09:55:52;98563.66;;;18.48;42.10
33163;BME280;29282;45.656;11.302;2023-01-30T09:58:21;98557.88;;;18.41;42.16
33163;BME280;29282;45.656;11.302;2023-01-30T10:00:53;98546.56;;;18.34;42.34
33163;BME280;29282;45.656;11.302;2023-01-30T10:03:30;98537.88;;;18.32;42.31
33163;BME280;29282;45.656;11.302;2023-01-30T10:06:00;98540.63;;;18.32;42.22
33163;BME280;29282;45.656;11.302;2023-01-30T10:14:20;98515.00;;;18.28;42.23
33163;BME280;29282;45.656;11.302;2023-01-30T10:16:57;98504.03;;;18.28;42.18
33163;BME280;29282;45.656;11.302;2023-01-30T10:27:20;98479.78;;;18.30;42.35
33163;BME280;29282;45.656;11.302;2023-01-30T10:29:52;98486.91;;;18.31;42.07
33163;BME280;29282;45.656;11.302;2023-01-30T10:32:41;98483.03;;;18.32;42.02
33163;BME280;29282;45.656;11.302;2023-01-30T10:35:21;98475.44;;;18.29;42.21
33163;BME280;29282;45.656;11.302;2023-01-30T10:37:57;98468.03;;;18.29;42.23
33163;BME280;29282;45.656;11.302;2023-01-30T10:40:42;98464.13;;;18.30;42.07
33163;BME280;29282;45.656;11.302;2023-01-30T10:43:23;98459.00;;;18.29;42.20
33163;BME280;29282;45.656;11.302;2023-01-30T10:52:06;98443.34;;;18.29;42.20
33163;BME280;29282;45.656;11.302;2023-01-30T10:56:44;98435.91;;;18.30;42.13
33163;BME280;29282;45.656;11.302;2023-01-30T10:59:47;98422.19;;;18.30;42.07
33163;BME280;29282;45.656;11.302;2023-01-30T11:08:33;98391.22;;;18.29;42.02
33163;BME280;29282;45.656;11.302;2023-01-30T11:11:00;98390.75;;;18.27;42.22
33163;BME280;29282;45.656;11.302;2023-01-30T11:13:30;98377.03;;;18.27;42.13
33163;BME280;29282;45.656;11.302;2023-01-30T11:16:05;98371.53;;;18.27;42.32
33163;BME280;29282;45.656;11.302;2023-01-30T11:18:32;98377.88;;;18.28;42.26
33163;BME280;29282;45.656;11.302;2023-01-30T11:21:13;98387.19;;;18.27;42.19
33163;BME280;29282;45.656;11.302;2023-01-30T11:23:42;98398.97;;;18.27;42.10
33163;BME280;29282;45.656;11.302;2023-01-30T11:26:24;98390.28;;;18.25;42.18
33163;BME280;29282;45.656;11.302;2023-01-30T11:28:54;98379.31;;;18.25;42.27
33163;BME280;29282;45.656;11.302;2023-01-30T11:31:27;98373.34;;;18.23;42.27
33163;BME280;29282;45.656;11.302;2023-01-30T11:34:14;98362.38;;;18.23;42.34
33163;BME280;29282;45.656;11.302;2023-01-30T11:36:40;98358.84;;;18.23;42.20
33163;BME280;29282;45.656;11.302;2023-01-30T11:44:25;98364.31;;;18.23;42.14
33163;BME280;29282;45.656;11.302;2023-01-30T11:46:52;98362.38;;;18.23;42.27
33163;BME280;29282;45.656;11.302;2023-01-30T11:49:19;98358.84;;;18.23;42.12
33163;BME280;29282;45.656;11.302;2023-01-30T11:51:47;98355.59;;;18.21;42.17
33163;BME280;29282;45.656;11.302;2023-01-30T11:54:31;98362.72;;;18.22;42.08
33163;BME280;29282;45.656;11.302;2023-01-30T11:57:01;98342.38;;;18.23;42.33
33163;BME280;29282;45.656;11.302;2023-01-30T11:59:57;98325.44;;;18.21;42.15
33163;BME280;29282;45.656;11.302;2023-01-30T12:02:27;98318.03;;;18.21;42.30
33163;BME280;29282;45.656;11.302;2023-01-30T12:05:03;98309.81;;;18.21;42.27
33163;BME280;29282;45.656;11.302;2023-01-30T12:07:32;98292.88;;;18.19;42.31
33163;BME280;29282;45.656;11.302;2023-01-30T12:09:58;98292.88;;;18.19;42.33
33163;BME280;29282;45.656;11.302;2023-01-30T12:12:36;98298.38;;;18.19;42.34
33163;BME280;29282;45.656;11.302;2023-01-30T12:15:30;98286.25;;;18.20;42.21
33163;BME280;29282;45.656;11.302;2023-01-30T12:18:20;98290.47;;;18.18;42.33
33163;BME280;29282;45.656;11.302;2023-01-30T12:23:48;98278.69;;;18.17;42.29
33163;BME280;29282;45.656;11.302;2023-01-30T12:26:28;98278.03;;;18.20;42.30
33163;BME280;29282;45.656;11.302;2023-01-30T12:29:26;98285.47;;;18.20;42.04
33163;BME280;29282;45.656;11.302;2023-01-30T12:32:06;98286.59;;;18.19;42.11
33163;BME280;29282;45.656;11.302;2023-01-30T12:34:33;98252.91;;;18.18;42.11
33163;BME280;29282;45.656;11.302;2023-01-30T12:58:40;98245.00;;;18.17;42.42
33163;BME280;29282;45.656;11.302;2023-01-30T13:06:57;98188.44;;;18.12;42.59
33163;BME280;29282;45.656;11.302;2023-01-30T13:15:15;98192.28;;;18.11;42.70
33163;BME280;29282;45.656;11.302;2023-01-30T13:17:50;98200.84;;;18.10;42.78
33163;BME280;29282;45.656;11.302;2023-01-30T13:20:41;98211.81;;;18.10;42.73
33163;BME280;29282;45.656;11.302;2023-01-30T13:25:53;98217.31;;;18.10;42.97
33163;BME280;29282;45.656;11.302;2023-01-30T13:28:36;98209.44;;;18.08;42.70
33163;BME280;29282;45.656;11.302;2023-01-30T13:31:05;98203.59;;;18.10;42.91
33163;BME280;29282;45.656;11.302;2023-01-30T13:33:35;98190.25;;;18.08;42.79
33163;BME280;29282;45.656;11.302;2023-01-30T13:41:32;98183.13;;;18.07;42.78
33163;BME280;29282;45.656;11.302;2023-01-30T13:44:02;98177.19;;;18.05;42.99
33163;BME280;29282;45.656;11.302;2023-01-30T13:46:31;98179.59;;;18.06;42.77
33163;BME280;29282;45.656;11.302;2023-01-30T13:49:18;98172.50;;;18.05;42.95
33163;BME280;29282;45.656;11.302;2023-01-30T13:51:56;98166.53;;;18.03;42.97
33163;BME280;29282;45.656;11.302;2023-01-30T14:04:45;98155.81;;;17.98;43.10
33163;BME280;29282;45.656;11.302;2023-01-30T14:07:15;98167.56;;;17.99;42.97
33163;BME280;29282;45.656;11.302;2023-01-30T14:12:43;98162.75;;;17.96;43.02
33163;BME280;29282;45.656;11.302;2023-01-30T14:20:45;98155.66;;;17.95;43.13
33163;BME280;29282;45.656;11.302;2023-01-30T14:23:30;98151.00;;;17.95;43.20
33163;BME280;29282;45.656;11.302;2023-01-30T14:26:00;98155.31;;;17.96;42.99
33163;BME280;29282;45.656;11.302;2023-01-30T14:31:01;98139.22;;;17.95;43.00
33163;BME280;29282;45.656;11.302;2023-01-30T14:38:24;98154.53;;;17.96;43.05
33163;BME280;29282;45.656;11.302;2023-01-30T14:46:06;98148.25;;;17.95;42.88
33163;BME280;29282;45.656;11.302;2023-01-30T14:51:30;98143.09;;;17.94;43.04
33163;BME280;29282;45.656;11.302;2023-01-30T14:54:01;98140.69;;;17.92;42.94
33163;BME280;29282;45.656;11.302;2023-01-30T15:07:11;98161.81;;;17.92;42.85
33163;BME280;29282;45.656;11.302;2023-01-30T15:09:41;98161.00;;;17.91;43.00
33163;BME280;29282;45.656;11.302;2023-01-30T15:31:22;98153.47;;;17.88;42.85
33163;BME280;29282;45.656;11.302;2023-01-30T15:33:49;98146.84;;;17.89;42.88
33163;BME280;29282;45.656;11.302;2023-01-30T15:39:17;98161.69;;;17.88;42.89
33163;BME280;29282;45.656;11.302;2023-01-30T15:41:42;98164.75;;;17.87;42.62
33163;BME280;29282;45.656;11.302;2023-01-30T15:44:35;98166.34;;;17.88;43.05
33163;BME280;29282;45.656;11.302;2023-01-30T15:52:04;98166.34;;;17.88;43.00
33163;BME280;29282;45.656;11.302;2023-01-30T15:54:31;98158.13;;;17.88;42.90
33163;BME280;29282;45.656;11.302;2023-01-30T15:56:58;98176.50;;;17.87;42.86
33163;BME280;29282;45.656;11.302;2023-01-30T15:59:27;98175.38;;;17.88;42.95
33163;BME280;29282;45.656;11.302;2023-01-30T16:02:04;98167.16;;;17.88;42.95
33163;BME280;29282;45.656;11.302;2023-01-30T16:04:30;98184.84;;;17.91;42.89
33163;BME280;29282;45.656;11.302;2023-01-30T16:06:56;98198.16;;;18.01;42.35
33163;BME280;29282;45.656;11.302;2023-01-30T16:09:24;98184.00;;;17.99;42.69
33163;BME280;29282;45.656;11.302;2023-01-30T16:11:50;98178.13;;;17.88;42.59
33163;BME280;29282;45.656;11.302;2023-01-30T16:14:18;98177.31;;;17.88;42.78